Time;durP1;ratioP1;P1;durP2;ratioP2;P2;SDS_P1;SDS_P2;PMS_P1;PMS_P2;Temp;Humidity;BMP_temperature;BMP_pressure;BME280_temperature;BME280_humidity;BME280_pressure;Samples;Min_cycle;Max_cycle;Signal;HPM_P1;HPM_P2
2022/04/23 00:00:29;;;;;;;17.00;14.27;;;;;;;9.24;100.00;95110.94;5122027;27;20087;-58
2022/04/23 00:02:59;;;;;;;16.25;13.48;;;;;;;9.14;100.00;95113.75;5121640;27;20066;-49
2022/04/23 00:05:30;;;;;;;15.63;13.15;;;;;;;9.23;100.00;95110.09;5121068;27;20063;-54
2022/04/23 00:07:58;;;;;;;14.70;12.18;;;;;;;9.20;100.00;95120.16;5122535;27;20071;-52
2022/04/23 00:10:26;;;;;;;14.45;12.35;;;;;;;9.17;100.00;95115.22;5124279;27;20059;-52
2022/04/23 00:12:55;;;;;;;16.65;14.20;;;;;;;9.18;100.00;95111.59;5119597;27;20059;-46
2022/04/23 00:15:24;;;;;;;18.23;14.90;;;;;;;9.18;100.00;95114.22;5121964;27;20086;-47
2022/04/23 00:17:53;;;;;;;16.05;13.25;;;;;;;9.27;100.00;95111.41;5114378;27;20075;-52
2022/04/23 00:20:23;;;;;;;17.30;15.07;;;;;;;9.26;100.00;95114.22;5122992;27;20072;-47
2022/04/23 00:22:53;;;;;;;16.27;13.65;;;;;;;9.40;100.00;95110.06;5121664;27;20061;-48
2022/04/23 00:25:21;;;;;;;15.83;13.00;;;;;;;9.33;100.00;95106.47;5125837;27;20094;-48
2022/04/23 00:27:50;;;;;;;14.00;11.30;;;;;;;9.27;100.00;95100.88;5121528;27;20090;-46
2022/04/23 00:30:19;;;;;;;15.40;13.18;;;;;;;9.03;100.00;95112.28;5121616;27;20120;-52
2022/04/23 00:32:47;;;;;;;14.40;12.30;;;;;;;9.06;100.00;95111.16;5119152;27;20642;-48
2022/04/23 00:35:16;;;;;;;16.77;14.35;;;;;;;9.18;100.00;95114.22;5119450;27;20059;-55
2022/04/23 00:37:46;;;;;;;14.30;10.60;;;;;;;8.99;100.00;95118.06;5126493;27;20070;-52
2022/04/23 00:40:17;;;;;;;15.85;11.95;;;;;;;9.10;100.00;95116.88;5115724;27;20062;-53
2022/04/23 00:42:47;;;;;;;15.93;13.15;;;;;;;9.20;100.00;95113.06;5120339;27;22247;-48
2022/04/23 00:45:16;;;;;;;16.63;13.20;;;;;;;9.07;100.00;95112.78;5118187;27;20075;-49
2022/04/23 00:47:44;;;;;;;15.30;12.70;;;;;;;9.17;100.00;95109.97;5118868;27;20070;-50
2022/04/23 00:50:13;;;;;;;16.40;12.85;;;;;;;9.04;100.00;95107.84;5121242;27;20035;-48
2022/04/23 00:52:41;;;;;;;16.27;13.48;;;;;;;9.21;100.00;95108.63;5121666;27;20058;-47
2022/04/23 00:55:10;;;;;;;15.00;12.00;;;;;;;9.14;100.00;95121.63;5120570;27;20559;-51
2022/04/23 00:57:40;;;;;;;18.02;15.77;;;;;;;9.09;100.00;95116.06;5122281;27;20069;-51
2022/04/23 01:00:10;;;;;;;17.47;14.23;;;;;;;9.15;100.00;95109.28;5119092;27;20780;-53
2022/04/23 01:02:38;;;;;;;16.53;13.93;;;;;;;9.16;100.00;95113.59;5115947;27;20066;-53
2022/04/23 01:05:08;;;;;;;19.17;15.10;;;;;;;9.22;100.00;95110.25;5121017;27;20454;-55
2022/04/23 01:07:39;;;;;;;17.93;14.40;;;;;;;9.16;100.00;95109.16;5119416;27;20059;-50
2022/04/23 01:10:07;;;;;;;;;;;;;;;8.86;100.00;95107.25;5119947;27;20059;-53
2022/04/23 01:12:36;;;;;;;16.23;12.93;;;;;;;9.04;100.00;95110.47;5118629;27;19959;-53
2022/04/23 01:15:07;;;;;;;16.60;13.63;;;;;;;8.98;100.00;95117.25;5095860;28;20059;-49
2022/04/23 01:17:36;;;;;;;15.82;13.75;;;;;;;8.72;100.00;95111.38;5118576;27;20074;-54
2022/04/23 01:20:07;;;;;;;17.92;13.35;;;;;;;8.97;100.00;95105.06;5120330;27;20066;-53
2022/04/23 01:22:37;;;;;;;18.58;14.50;;;;;;;8.82;100.00;95101.50;5119934;27;20559;-53
2022/04/23 01:25:07;;;;;;;18.08;14.82;;;;;;;8.84;100.00;95111.84;5116537;28;20063;-48
2022/04/23 01:27:35;;;;;;;16.90;13.40;;;;;;;9.11;100.00;95100.94;5115584;27;20090;-47
2022/04/23 01:30:05;;;;;;;17.33;13.75;;;;;;;9.20;100.00;95099.09;5123839;27;20070;-49
2022/04/23 01:32:33;;;;;;;19.30;15.35;;;;;;;9.06;100.00;95103.25;5128347;27;20090;-46
2022/04/23 01:35:02;;;;;;;17.25;13.50;;;;;;;9.16;100.00;95109.16;5114786;27;20066;-49
2022/04/23 01:37:31;;;;;;;15.93;12.90;;;;;;;8.90;100.00;95113.81;5114293;28;20709;-47
2022/04/23 01:40:00;;;;;;;17.45;13.40;;;;;;;8.99;100.00;95111.00;5116944;27;20079;-47
2022/04/23 01:42:28;;;;;;;15.93;11.98;;;;;;;8.80;100.00;95104.28;5118240;27;20823;-52
2022/04/23 01:44:56;;;;;;;19.60;15.18;;;;;;;8.89;100.00;95106.91;5124831;27;20070;-49
2022/04/23 01:47:25;;;;;;;18.02;13.90;;;;;;;9.02;100.00;95108.03;5122845;27;20070;-52
2022/04/23 01:49:53;;;;;;;19.02;14.82;;;;;;;9.23;100.00;95112.75;5120138;27;20067;-50
2022/04/23 01:52:21;;;;;;;17.67;14.18;;;;;;;9.32;100.00;95116.16;5121778;27;20069;-48
2022/04/23 01:54:51;;;;;;;19.58;14.10;;;;;;;9.15;100.00;95118.03;5119312;27;20086;-48
2022/04/23 01:57:19;;;;;;;20.50;14.90;;;;;;;9.18;100.00;95125.56;5124473;27;20490;-53
2022/04/23 01:59:48;;;;;;;18.67;14.55;;;;;;;9.43;100.00;95122.88;5122580;27;20071;-50
2022/04/23 02:02:16;;;;;;;18.90;14.90;;;;;;;9.19;100.00;95129.84;5122294;27;20121;-54
2022/04/23 02:04:45;;;;;;;18.77;15.00;;;;;;;9.09;100.00;95129.22;5121728;27;20070;-47
2022/04/23 02:07:13;;;;;;;19.35;15.27;;;;;;;9.24;100.00;95131.97;5122033;27;20055;-49
2022/04/23 02:09:41;;;;;;;19.25;14.98;;;;;;;9.37;100.00;95131.44;5118408;27;20078;-50
2022/04/23 02:12:11;;;;;;;19.20;15.27;;;;;;;8.92;100.00;95124.97;5124515;27;20082;-47
2022/04/23 02:14:40;;;;;;;18.30;14.98;;;;;;;9.31;100.00;95130.28;5124667;27;20147;-53
2022/04/23 02:17:09;;;;;;;19.85;15.05;;;;;;;9.39;100.00;95126.81;5120870;27;20065;-48
2022/04/23 02:19:38;;;;;;;18.70;14.33;;;;;;;9.36;100.00;95132.41;5124798;27;20071;-46
2022/04/23 02:22:06;;;;;;;19.77;14.43;;;;;;;9.42;100.00;95122.03;5121848;27;20063;-48
2022/04/23 02:24:34;;;;;;;20.23;14.48;;;;;;;9.43;100.00;95123.69;5119570;27;20071;-50
2022/04/23 02:27:04;;;;;;;19.77;14.95;;;;;;;9.51;100.00;95125.47;5121019;27;20063;-47
2022/04/23 02:29:34;;;;;;;20.40;15.90;;;;;;;9.51;100.00;95126.28;5117242;27;20453;-50
2022/04/23 02:32:02;;;;;;;19.17;14.80;;;;;;;9.32;100.00;95131.13;5131279;27;20070;-51
2022/04/23 02:34:30;;;;;;;17.90;13.88;;;;;;;9.42;100.00;95124.66;5126401;27;20465;-47
2022/04/23 02:36:59;;;;;;;21.08;15.45;;;;;;;9.45;100.00;95118.25;5121223;27;20088;-49
2022/04/23 02:39:27;;;;;;;21.15;14.88;;;;;;;9.28;100.00;95114.84;5123658;27;20091;-50
2022/04/23 02:41:56;;;;;;;22.20;14.82;;;;;;;9.16;100.00;95109.16;5123996;27;20075;-50
2022/04/23 02:44:25;;;;;;;20.77;15.02;;;;;;;9.28;100.00;95113.03;5120489;27;20071;-52
2022/04/23 02:46:55;;;;;;;20.42;15.88;;;;;;;9.25;100.00;95107.28;5129899;27;20074;-49
2022/04/23 02:49:23;;;;;;;19.07;14.20;;;;;;;9.28;100.00;95106.97;5118742;27;20077;-49
2022/04/23 02:51:51;;;;;;;20.08;14.68;;;;;;;9.34;100.00;95108.09;5119726;27;20067;-47
2022/04/23 02:54:20;;;;;;;23.70;17.42;;;;;;;9.14;100.00;95099.78;5119332;27;20070;-48
2022/04/23 02:56:49;;;;;;;25.00;16.85;;;;;;;9.33;100.00;95103.84;5120893;27;20445;-46
2022/04/23 02:59:17;;;;;;;22.70;16.08;;;;;;;9.37;100.00;95100.69;5115813;27;20051;-52
2022/04/23 03:01:45;;;;;;;22.80;16.10;;;;;;;9.28;100.00;95105.16;5105070;27;20070;-51
2022/04/23 03:04:17;;;;;;;21.92;16.60;;;;;;;9.24;100.00;95095.97;5133509;27;20504;-54
2022/04/23 03:06:45;;;;;;;21.23;17.33;;;;;;;9.11;100.00;95094.84;5119400;27;20077;-53
2022/04/23 03:09:14;;;;;;;17.00;13.52;;;;;;;9.19;100.00;95089.59;5123148;27;20083;-53
2022/04/23 03:11:42;;;;;;;19.83;15.63;;;;;;;9.13;100.00;95098.97;5120295;27;20212;-47
2022/04/23 03:14:10;;;;;;;20.60;14.45;;;;;;;9.21;100.00;95098.09;5128119;27;20077;-46
2022/04/23 03:16:39;;;;;;;20.17;13.98;;;;;;;9.15;100.00;95097.00;5123584;27;20066;-48
2022/04/23 03:19:07;;;;;;;21.33;16.50;;;;;;;9.35;100.00;95097.41;5124229;27;20536;-47
2022/04/23 03:21:37;;;;;;;20.13;14.52;;;;;;;9.29;100.00;95098.09;5120240;27;20079;-48
2022/04/23 03:24:06;;;;;;;21.77;17.95;;;;;;;9.19;100.00;95103.56;5119872;27;20513;-52
2022/04/23 03:26:34;;;;;;;16.40;12.32;;;;;;;9.06;100.00;95099.81;5118634;27;20071;-54
2022/04/23 03:29:03;;;;;;;21.65;16.77;;;;;;;9.27;100.00;95106.16;5116529;27;20067;-53
2022/04/23 03:31:31;;;;;;;20.80;15.20;;;;;;;9.33;100.00;95098.56;5121089;27;20058;-49
2022/04/23 03:34:00;;;;;;;19.20;15.18;;;;;;;9.32;100.00;95100.38;5123029;27;20075;-47
2022/04/23 03:36:28;;;;;;;21.67;16.77;;;;;;;9.34;100.00;95098.41;5122970;27;20110;-53
2022/04/23 03:38:58;;;;;;;20.85;15.98;;;;;;;9.20;100.00;95101.75;5121691;27;20102;-50
2022/04/23 03:41:26;;;;;;;20.03;16.10;;;;;;;9.38;100.00;95102.31;5120348;27;20031;-53
2022/04/23 03:43:55;;;;;;;20.67;15.25;;;;;;;9.17;100.00;95095.00;5119316;27;20485;-50
2022/04/23 03:46:23;;;;;;;18.77;14.98;;;;;;;9.24;100.00;95103.84;5118135;27;20063;-51
2022/04/23 03:48:52;;;;;;;18.05;14.23;;;;;;;9.27;100.00;95098.25;5122409;27;20074;-51
2022/04/23 03:51:20;;;;;;;17.90;13.75;;;;;;;9.45;100.00;95105.09;5120535;27;20473;-53
2022/04/23 03:53:48;;;;;;;17.77;13.88;;;;;;;9.36;100.00;95106.94;5126597;27;20087;-50
2022/04/23 03:56:18;;;;;;;18.55;15.68;;;;;;;9.30;100.00;95109.44;5119502;27;20066;-54
2022/04/23 03:58:47;;;;;;;18.58;14.75;;;;;;;9.01;100.00;95092.41;5118627;27;20065;-47
2022/04/23 04:01:15;;;;;;;16.50;12.75;;;;;;;8.91;100.00;95097.03;5117641;27;20071;-48
2022/04/23 04:03:44;;;;;;;19.63;15.13;;;;;;;9.27;100.00;95103.50;5120810;27;20095;-50
2022/04/23 04:06:13;;;;;;;19.98;14.23;;;;;;;9.29;100.00;95103.38;5117429;27;20088;-48
2022/04/23 04:08:41;;;;;;;16.35;11.27;;;;;;;9.12;100.00;95104.38;5123118;27;20067;-46
2022/04/23 04:11:09;;;;;;;18.92;12.68;;;;;;;9.13;100.00;95106.03;5120687;27;20063;-47
2022/04/23 04:13:39;;;;;;;20.30;14.93;;;;;;;9.30;100.00;95088.38;5120516;27;20074;-49
2022/04/23 04:16:08;;;;;;;24.03;17.90;;;;;;;9.08;100.00;95095.19;5116642;27;20442;-49
2022/04/23 04:18:36;;;;;;;19.63;15.07;;;;;;;9.15;100.00;95097.00;5119535;27;20551;-47
2022/04/23 04:21:05;;;;;;;23.48;15.23;;;;;;;9.12;100.00;95088.59;5116772;27;20082;-51
2022/04/23 04:23:33;;;;;;;24.83;17.48;;;;;;;9.11;100.00;95097.47;5113855;27;20815;-49
2022/04/23 04:26:02;;;;;;;24.88;16.95;;;;;;;9.31;100.00;95090.84;5116123;27;20063;-49
2022/04/23 04:28:31;;;;;;;22.20;15.43;;;;;;;9.22;100.00;95090.06;5118338;27;20070;-50
2022/04/23 04:33:46;;;;;;;20.20;15.00;;;;;;;9.44;100.00;95100.81;5120422;27;20560;-47
2022/04/23 04:36:15;;;;;;;19.65;15.25;;;;;;;9.60;100.00;95095.50;5121102;27;20578;-49
2022/04/23 04:38:44;;;;;;;25.25;16.70;;;;;;;9.26;100.00;95101.88;5117748;27;20078;-50
2022/04/23 04:41:12;;;;;;;21.65;15.38;;;;;;;9.31;100.00;95097.91;5123771;27;20732;-52
2022/04/23 04:43:41;;;;;;;22.73;16.17;;;;;;;9.23;100.00;95106.66;5124183;27;20071;-48
2022/04/23 04:46:11;;;;;;;25.92;17.55;;;;;;;9.34;100.00;95089.69;5118527;27;20646;-46
2022/04/23 04:48:39;;;;;;;26.07;19.07;;;;;;;9.26;100.00;95088.72;5126078;27;20481;-49
2022/04/23 04:51:08;;;;;;;23.10;16.48;;;;;;;9.20;100.00;95086.78;5118099;27;20438;-49
2022/04/23 04:53:36;;;;;;;22.17;15.93;;;;;;;9.14;100.00;95073.47;5114082;27;20062;-50
2022/04/23 04:56:05;;;;;;;21.23;14.77;;;;;;;9.14;100.00;95094.50;5117639;27;20078;-48
2022/04/23 04:58:33;;;;;;;24.45;16.60;;;;;;;9.19;100.00;95086.97;5120243;27;20059;-52
2022/04/23 05:01:02;;;;;;;26.58;19.33;;;;;;;9.16;100.00;95088.09;5098103;27;20082;-48
2022/04/23 05:03:32;;;;;;;26.08;18.60;;;;;;;9.12;100.00;95080.72;5127769;27;20114;-46
2022/04/23 05:06:01;;;;;;;24.98;19.63;;;;;;;9.22;100.00;95081.31;5117844;27;20067;-47
2022/04/23 05:08:29;;;;;;;26.98;19.08;;;;;;;9.41;100.00;95095.91;5124093;27;20063;-48
2022/04/23 05:10:57;;;;;;;26.33;20.20;;;;;;;9.46;100.00;95099.66;5115540;27;20067;-53
2022/04/23 05:13:26;;;;;;;27.73;17.95;;;;;;;9.57;100.00;95093.22;5119655;27;20070;-51
2022/04/23 05:15:54;;;;;;;21.73;15.70;;;;;;;9.28;100.00;95094.63;5117321;27;20460;-49
2022/04/23 05:18:22;;;;;;;25.20;19.77;;;;;;;9.48;100.00;95091.59;5101627;27;20067;-49
2022/04/23 05:20:53;;;;;;;23.38;19.92;;;;;;;9.19;100.00;95087.78;5124937;27;20093;-46
2022/04/23 05:23:21;;;;;;;;;;;;;;;9.32;100.00;95091.66;5125530;27;20070;-53
2022/04/23 05:25:49;;;;;;;22.20;15.15;;;;;;;9.34;100.00;95087.88;5129085;27;20368;-45
2022/04/23 05:28:18;;;;;;;20.90;14.60;;;;;;;9.32;100.00;95087.22;5124104;27;20066;-52
2022/04/23 05:30:46;;;;;;;25.02;17.15;;;;;;;9.47;100.00;95090.78;5131604;27;20142;-46
2022/04/23 05:33:14;;;;;;;23.77;16.33;;;;;;;9.49;100.00;95094.03;5127782;27;20079;-50
2022/04/23 05:35:43;;;;;;;24.25;18.08;;;;;;;9.54;100.00;95096.19;5123566;27;20063;-50
2022/04/23 05:38:13;;;;;;;25.33;18.25;;;;;;;9.49;100.00;95099.31;5126666;27;20067;-49
2022/04/23 05:40:41;;;;;;;24.20;18.73;;;;;;;9.65;100.00;95106.31;5129370;27;20063;-51
2022/04/23 05:43:10;;;;;;;23.73;18.17;;;;;;;9.70;100.00;95111.91;5126125;27;20063;-47
2022/04/23 05:45:38;;;;;;;21.65;15.82;;;;;;;9.58;100.00;95113.25;5124464;27;20066;-46
2022/04/23 05:48:07;;;;;;;20.98;15.90;;;;;;;9.48;100.00;95110.00;5126144;27;21290;-48
2022/04/23 05:50:36;;;;;;;24.75;18.70;;;;;;;9.58;100.00;95113.25;5123263;27;20096;-49
2022/04/23 05:53:04;;;;;;;20.05;15.25;;;;;;;9.70;100.00;95111.91;5122232;27;20070;-47
2022/04/23 05:55:34;;;;;;;21.95;17.58;;;;;;;9.85;100.00;95095.38;5121339;27;20051;-48
2022/04/23 05:58:03;;;;;;;25.05;18.77;;;;;;;9.84;100.00;95096.34;5107874;27;20062;-48
2022/04/23 06:00:31;;;;;;;23.38;19.08;;;;;;;9.71;100.00;95097.72;5121206;27;20441;-46
2022/04/23 06:02:59;;;;;;;26.58;20.08;;;;;;;9.68;100.00;95092.00;5105949;27;20055;-48
2022/04/23 06:05:28;;;;;;;23.98;17.33;;;;;;;9.87;100.00;95088.09;5120464;27;20058;-52
2022/04/23 06:07:56;;;;;;;25.40;20.02;;;;;;;9.95;100.00;95096.78;5119196;27;20063;-50
2022/04/23 06:10:25;;;;;;;23.00;17.60;;;;;;;9.95;100.00;95099.41;5121972;27;20118;-53
2022/04/23 06:12:54;;;;;;;21.10;17.38;;;;;;;10.11;100.00;95101.09;5122311;27;20509;-48
2022/04/23 06:15:23;;;;;;;22.90;18.10;;;;;;;10.18;100.00;95093.31;5119610;27;20066;-48
2022/04/23 06:17:51;;;;;;;24.83;18.80;;;;;;;10.25;100.00;95091.63;5124077;27;20064;-49
2022/04/23 06:20:19;;;;;;;28.25;19.45;;;;;;;10.16;100.00;95090.06;5124570;27;20086;-47
2022/04/23 06:22:48;;;;;;;27.50;20.67;;;;;;;9.79;100.00;95102.13;5123826;27;20664;-47
2022/04/23 06:25:16;;;;;;;24.73;18.23;;;;;;;10.33;100.00;95094.25;5121335;27;20073;-47
2022/04/23 06:27:45;;;;;;;22.10;15.43;;;;;;;9.90;100.00;95090.38;5123444;27;20111;-48
2022/04/23 06:30:15;;;;;;;27.00;21.15;;;;;;;10.17;100.00;95091.69;5126430;27;20101;-49
2022/04/23 06:32:44;;;;;;;25.80;19.98;;;;;;;10.48;100.00;95086.38;5124347;27;20035;-49
2022/04/23 06:35:12;;;;;;;25.00;20.90;;;;;;;10.49;100.00;95098.53;5130282;27;20082;-49
2022/04/23 06:37:41;;;;;;;24.13;18.65;;;;;;;10.38;100.00;95105.06;5123762;27;20066;-55
2022/04/23 06:40:11;;;;;;;26.35;21.88;;;;;;;10.25;100.00;95110.06;5121947;27;20072;-46
2022/04/23 06:42:40;;;;;;;23.83;17.48;;;;;;;10.31;100.00;95100.66;5118642;27;20070;-46
2022/04/23 06:45:10;;;;;;;24.67;19.80;;;;;;;10.22;100.00;95100.72;5123177;27;20364;-53
2022/04/23 06:47:40;;;;;;;25.17;16.38;;;;;;;10.37;100.00;95097.34;5120341;27;20117;-50
2022/04/23 06:50:09;;;;;;;24.30;19.93;;;;;;;10.41;100.00;95096.78;5125744;27;20063;-49
2022/04/23 06:52:37;;;;;;;25.85;22.30;;;;;;;10.44;100.00;95090.38;5121966;27;20071;-51
2022/04/23 06:55:06;;;;;;;23.63;18.60;;;;;;;10.35;100.00;95086.97;5121244;27;20062;-53
2022/04/23 06:57:43;;;;;;;23.33;17.30;;;;;;;10.40;100.00;95091.72;5119536;27;20066;-46
2022/04/23 07:00:13;;;;;;;23.80;17.85;;;;;;;10.59;100.00;95082.47;5123799;27;20450;-50
2022/04/23 07:02:43;;;;;;;24.53;17.30;;;;;;;10.60;100.00;95087.59;5127432;27;20084;-50
2022/04/23 07:05:11;;;;;;;22.58;17.13;;;;;;;10.83;100.00;95081.44;5124263;27;20059;-46
2022/04/23 07:07:40;;;;;;;24.58;17.20;;;;;;;10.78;100.00;95081.16;5123181;27;20055;-53
2022/04/23 07:10:09;;;;;;;24.98;18.55;;;;;;;10.64;100.00;95094.13;5130222;27;20070;-49
2022/04/23 07:12:37;;;;;;;25.45;20.75;;;;;;;10.77;100.00;95085.63;5124262;27;20183;-49
2022/04/23 07:15:07;;;;;;;23.55;20.42;;;;;;;10.85;100.00;95088.19;5125354;27;20182;-49
2022/04/23 07:17:36;;;;;;;24.38;20.50;;;;;;;10.67;100.00;95085.88;5119483;27;20118;-52
2022/04/23 07:20:07;;;;;;;24.55;19.17;;;;;;;11.08;100.00;95096.03;5125099;27;20081;-51
2022/04/23 07:22:36;;;;;;;25.70;18.88;;;;;;;11.31;100.00;95087.19;5120648;27;20071;-48
2022/04/23 07:25:07;;;;;;;20.55;16.23;;;;;;;11.04;100.00;95092.09;5124584;27;20050;-50
2022/04/23 07:27:36;;;;;;;21.45;18.10;;;;;;;11.21;100.00;95087.47;5116925;27;20565;-48
2022/04/23 07:30:05;;;;;;;22.63;19.02;;;;;;;11.24;100.00;95100.28;5128843;27;20078;-56
2022/04/23 07:32:33;;;;;;;22.48;17.67;;;;;;;11.67;100.00;95104.91;5127920;27;20572;-51
2022/04/23 07:37:49;;;;;;;21.63;17.63;;;;;;;11.32;100.00;95097.59;5117517;27;20096;-51
2022/04/23 07:40:17;;;;;;;23.77;19.55;;;;;;;11.63;100.00;95094.72;5137722;27;20050;-46
2022/04/23 07:42:46;;;;;;;23.23;17.70;;;;;;;12.09;100.00;95085.72;5123223;27;20051;-49
2022/04/23 07:45:14;;;;;;;22.98;17.88;;;;;;;12.35;100.00;95087.78;5127933;27;20094;-47
2022/04/23 07:47:43;;;;;;;22.42;16.98;;;;;;;12.29;100.00;95085.91;5124010;27;20059;-49
2022/04/23 07:50:11;;;;;;;21.90;17.60;;;;;;;12.66;100.00;95074.22;5128891;27;20067;-46
2022/04/23 07:52:39;;;;;;;22.45;18.25;;;;;;;12.15;100.00;95084.13;5120597;27;20085;-47
2022/04/23 07:55:10;;;;;;;23.27;18.25;;;;;;;12.32;100.00;95067.84;5125341;27;20069;-49
2022/04/23 07:57:38;;;;;;;22.70;17.00;;;;;;;12.01;100.00;95073.44;5124174;27;20082;-55
2022/04/23 08:00:08;;;;;;;18.52;14.48;;;;;;;11.75;100.00;95065.19;5125163;27;20227;-49
2022/04/23 08:02:37;;;;;;;;;;;;;;;12.02;100.00;95064.50;5125468;27;20062;-55
2022/04/23 08:05:06;;;;;;;20.02;16.95;;;;;;;11.80;100.00;95068.09;5124461;27;20457;-48
2022/04/23 08:07:34;;;;;;;20.30;17.23;;;;;;;11.69;100.00;95071.22;5125257;27;20082;-50
2022/04/23 08:10:03;;;;;;;21.50;17.17;;;;;;;12.14;100.00;95072.75;5118945;27;20059;-51
2022/04/23 08:12:35;;;;;;;22.85;16.85;;;;;;;12.38;100.00;95074.19;5126259;27;20070;-54
2022/04/23 08:15:04;;;;;;;20.35;16.35;;;;;;;12.61;100.00;95068.69;5128071;27;20707;-54
2022/04/23 08:17:33;;;;;;;20.63;16.02;;;;;;;12.37;100.00;95069.91;5123584;27;20062;-52
2022/04/23 08:20:02;;;;;;;21.40;15.30;;;;;;;12.00;100.00;95063.03;5126182;27;20088;-49
2022/04/23 08:22:31;;;;;;;22.27;17.25;;;;;;;12.34;100.00;95076.38;5123260;27;20085;-47
2022/04/23 08:24:59;;;;;;;22.63;17.83;;;;;;;12.68;100.00;95068.75;5122820;27;20039;-48
2022/04/23 08:27:28;;;;;;;23.90;19.00;;;;;;;12.57;100.00;95060.31;5127535;27;20070;-48
2022/04/23 08:32:43;;;;;;;18.13;13.73;;;;;;;12.20;100.00;95045.56;5117348;27;20603;-54
2022/04/23 08:35:12;;;;;;;22.17;17.65;;;;;;;12.71;100.00;95057.78;5125609;27;20539;-51
2022/04/23 08:37:40;;;;;;;21.50;15.38;;;;;;;12.81;100.00;95050.34;5122867;27;20518;-49
2022/04/23 08:40:11;;;;;;;21.40;15.88;;;;;;;12.76;100.00;95052.72;5119855;27;20528;-53
2022/04/23 08:42:40;;;;;;;21.17;17.55;;;;;;;12.39;100.00;95057.34;5118411;27;20122;-53
2022/04/23 08:45:12;;;;;;;21.55;17.75;;;;;;;12.35;100.00;95056.06;5124799;27;20079;-46
2022/04/23 08:47:45;;;;;;;20.05;17.10;;;;;;;12.22;100.00;95061.25;5115512;27;20592;-56
2022/04/23 08:50:14;;;;;;;21.60;17.58;;;;;;;12.23;100.00;95061.03;5104409;27;20062;-50
2022/04/23 08:52:43;;;;;;;21.90;16.40;;;;;;;12.47;100.00;95043.16;5120410;27;20067;-52
2022/04/23 08:55:16;;;;;;;22.27;16.40;;;;;;;12.23;100.00;95060.22;5120700;27;20446;-51
2022/04/23 08:57:44;;;;;;;20.67;16.48;;;;;;;12.52;100.00;95041.56;5126294;27;20476;-52
2022/04/23 09:00:16;;;;;;;19.00;13.95;;;;;;;12.52;100.00;95049.50;5123571;27;20067;-47
2022/04/23 09:02:45;;;;;;;22.05;16.65;;;;;;;12.66;100.00;95057.53;5120526;27;20690;-46
2022/04/23 09:05:14;;;;;;;21.08;15.48;;;;;;;12.77;100.00;95049.91;5126288;27;20070;-53
2022/04/23 09:07:53;;;;;;;20.48;15.75;;;;;;;12.81;100.00;95052.97;5121042;27;20417;-49
2022/04/23 09:10:22;;;;;;;24.10;16.48;;;;;;;12.59;100.00;95038.97;5120062;27;20066;-46
2022/04/23 09:12:54;;;;;;;25.20;18.83;;;;;;;12.47;100.00;95059.84;5119159;27;20124;-52
2022/04/23 09:24:07;;;;;;;24.70;18.25;;;;;;;12.93;100.00;95056.72;5119247;27;20055;-53
2022/04/23 09:26:36;;;;;;;25.00;18.90;;;;;;;12.40;100.00;95064.25;5123766;27;20070;-48
2022/04/23 09:29:14;;;;;;;24.08;17.35;;;;;;;12.62;100.00;95062.38;5105436;27;20463;-51
2022/04/23 09:31:44;;;;;;;26.88;17.73;;;;;;;13.14;100.00;95060.28;5132752;27;20058;-47
2022/04/23 09:34:16;;;;;;;23.40;16.40;;;;;;;12.62;100.00;95061.56;5127751;27;20532;-47
2022/04/23 09:36:49;;;;;;;20.67;14.45;;;;;;;12.55;100.00;95066.81;5121407;27;20082;-47
2022/04/23 09:39:31;;;;;;;24.73;17.15;;;;;;;13.11;100.00;95063.31;5127172;27;20471;-47
2022/04/23 09:42:13;;;;;;;24.67;18.23;;;;;;;12.67;100.00;95061.84;5103389;27;20059;-47
2022/04/23 09:44:42;;;;;;;24.13;18.77;;;;;;;12.87;100.00;95073.38;5126516;27;20062;-47
2022/04/23 09:47:12;;;;;;;24.67;17.60;;;;;;;12.67;100.00;95064.47;5108092;27;20358;-51
2022/04/23 09:49:55;;;;;;;29.55;19.67;;;;;;;12.97;100.00;95073.84;5116546;27;20059;-49
2022/04/23 09:52:28;;;;;;;21.02;14.93;;;;;;;12.81;100.00;95071.50;5090208;27;20050;-50
2022/04/23 09:55:18;;;;;;;24.83;17.67;;;;;;;12.81;100.00;95071.50;5117952;27;20530;-52
2022/04/23 09:57:47;;;;;;;25.33;17.73;;;;;;;13.33;100.00;95069.41;5121548;27;20108;-51
2022/04/23 10:00:17;;;;;;;24.87;19.00;;;;;;;12.86;100.00;95063.78;5125565;27;20070;-49
2022/04/23 10:02:49;;;;;;;23.38;18.10;;;;;;;12.64;100.00;95063.03;5134627;27;21061;-49
2022/04/23 10:05:18;;;;;;;24.05;14.57;;;;;;;12.47;100.00;95080.97;5123875;27;20063;-49
2022/04/23 10:07:51;;;;;;;24.90;17.03;;;;;;;12.63;100.00;95071.13;5126515;27;20655;-49
2022/04/23 10:10:20;;;;;;;23.42;17.17;;;;;;;12.63;100.00;95064.03;5127749;27;20483;-54
2022/04/23 10:12:49;;;;;;;24.23;17.85;;;;;;;12.65;100.00;95079.72;5118949;27;20074;-48
2022/04/23 10:15:18;;;;;;;25.08;17.10;;;;;;;12.18;100.00;95068.75;5123253;27;20066;-50
2022/04/23 10:17:48;;;;;;;26.48;18.48;;;;;;;12.78;100.00;95069.22;5117802;27;20085;-47
2022/04/23 10:20:16;;;;;;;29.83;19.55;;;;;;;13.04;100.00;95071.22;5122708;27;20063;-55
2022/04/23 10:22:55;;;;;;;24.70;17.35;;;;;;;12.98;100.00;95072.03;5115955;27;20682;-53
2022/04/23 10:25:30;;;;;;;25.23;16.58;;;;;;;13.14;100.00;95055.00;5120205;27;20066;-47
2022/04/23 10:27:59;;;;;;;28.77;19.48;;;;;;;13.31;100.00;95069.59;5116594;27;20533;-52
2022/04/23 10:30:28;;;;;;;27.63;18.52;;;;;;;13.05;100.00;95057.00;5129288;27;20480;-50
2022/04/23 10:32:59;;;;;;;27.80;18.70;;;;;;;13.27;100.00;95065.69;5121879;27;20067;-52
2022/04/23 10:35:33;;;;;;;;;;;;;;;12.98;100.00;95059.59;5123093;27;20054;-49
2022/04/23 10:38:20;;;;;;;29.33;18.60;;;;;;;12.76;100.00;95053.53;5126572;27;19962;-48
2022/04/23 10:40:53;;;;;;;29.83;22.50;;;;;;;12.82;100.00;95047.47;5118093;27;20105;-47
2022/04/23 10:43:21;;;;;;;31.88;21.95;;;;;;;12.48;100.00;95063.28;5122011;27;20062;-49
2022/04/23 10:45:49;;;;;;;29.10;19.88;;;;;;;12.76;100.00;95064.13;5125565;27;20079;-51
2022/04/23 10:48:28;;;;;;;28.33;18.83;;;;;;;13.03;100.00;95056.38;5122805;27;20476;-54
2022/04/23 10:51:04;;;;;;;30.50;21.33;;;;;;;13.34;100.00;95052.50;5128154;27;20067;-53
2022/04/23 10:53:51;;;;;;;26.63;17.35;;;;;;;13.15;100.00;95054.81;5124060;27;20062;-55
2022/04/23 10:56:20;;;;;;;29.45;19.67;;;;;;;13.49;100.00;95043.41;5119036;27;20067;-48
2022/04/23 10:58:50;;;;;;;28.98;21.55;;;;;;;13.35;100.00;95051.47;5123278;27;20070;-51
2022/04/23 11:01:23;;;;;;;31.63;20.13;;;;;;;13.95;100.00;95044.59;5127972;27;20122;-52
2022/04/23 11:04:20;;;;;;;30.13;21.25;;;;;;;13.76;100.00;95047.00;5125102;27;20482;-49
2022/04/23 11:12:36;;;;;;;28.13;19.55;;;;;;;14.18;100.00;95041.59;5126121;27;20124;-55
2022/04/23 11:15:19;;;;;;;29.17;20.55;;;;;;;14.37;100.00;95032.81;5121697;27;20585;-54
2022/04/23 11:17:53;;;;;;;28.35;21.85;;;;;;;14.11;100.00;95033.63;5115864;27;20062;-51
2022/04/23 11:20:36;;;;;;;29.75;19.90;;;;;;;14.41;100.00;95023.41;5123760;27;20071;-48
2022/04/23 11:23:05;;;;;;;25.33;18.02;;;;;;;14.11;100.00;95033.63;5120689;27;20069;-52
2022/04/23 11:25:34;;;;;;;27.63;19.85;;;;;;;14.58;100.00;95034.47;5123403;27;20078;-50
2022/04/23 11:28:13;;;;;;;25.77;18.08;;;;;;;14.27;100.00;95023.63;5118879;27;20051;-52
2022/04/23 11:30:42;;;;;;;29.35;21.35;;;;;;;14.54;100.00;95043.88;5120192;27;20083;-55
2022/04/23 11:33:11;;;;;;;25.48;18.73;;;;;;;14.66;100.00;95038.78;5125660;27;20481;-50
2022/04/23 11:35:42;;;;;;;28.15;20.55;;;;;;;14.70;100.00;95047.97;5122312;27;20067;-48
2022/04/23 11:38:21;;;;;;;26.15;18.40;;;;;;;15.28;100.00;95049.91;5124226;27;20070;-55
2022/04/23 11:40:57;;;;;;;31.00;22.52;;;;;;;14.18;100.00;95052.19;5120783;27;20054;-50
2022/04/23 11:43:29;;;;;;;28.10;21.48;;;;;;;14.41;100.00;95049.94;5124651;27;20725;-47
2022/04/23 11:46:02;;;;;;;28.92;20.83;;;;;;;14.27;100.00;95055.44;5125827;27;20094;-48
2022/04/23 11:48:40;;;;;;;30.83;21.45;;;;;;;14.03;100.00;95052.34;5124144;27;20099;-53